Terminal Aerodrome Forecast
Issued by NWS

Home | Current Version | Previous Version | Text Only | Print | Product List | Glossary On
Versions: 1 2 3 4 5 6 7 8 9 10 11 12 13 14 15 16
000
FTUS46 KEKA 311720
TAFUKI
TAF
KUKI 311720Z 3118/0118 VRB04KT P6SM SCT250
     FM312100 13008KT P6SM SCT150
     FM010400 00000KT P6SM SCT150=

USA.gov is the U.S. government's official web portal to all federal, state and local government web resources and services.